06C

Schaumburg Regional Airport

Chicago/Schaumburg, Illinois, USA
METAR K06C 181315Z AUTO 00000KT 10SM OVC019 M02/M06 A3012 RMK AO2 T10251063
Observed Flight Rules
Jan-18 @ 13:15 UTC (33 minutes ago) Marginal Visual Flight Rules
Visibility Clouds
10 miles
  • Overcast at 1,900' AGL
Temperatures Readings
Current -3°C / 27°F
Dewpoint -6°C / 21°F
Humidity 80%
Altimeter 30.12" Hg
Pressure 1020.02 hPa
Elevation 244
METAR K06C 181315Z AUTO 00000KT 10SM OVC019 M02/M06 A3012 RMK AO2 T10251063
Observed Flight Rules
Jan-18 @ 13:15 UTC
(33 minutes ago)
MVFR
Clouds
  • Overcast at 1,900' AGL
Temperature Dewpoint
-3°C / 27°F -6°C / 21°F
Humidity Altimeter Pressure
80% 30.12" Hg 1020.02 hPa